sensor_id;sensor_type;location;lat;lon;timestamp;P1;durP1;ratioP1;P2;durP2;ratioP2
773;SDS011;370;48.810;9.150;2023-04-06T00:00:00;1.75;;;1.13;;
773;SDS011;370;48.810;9.150;2023-04-06T00:02:26;1.60;;;1.27;;
773;SDS011;370;48.810;9.150;2023-04-06T00:04:53;1.20;;;0.90;;
773;SDS011;370;48.810;9.150;2023-04-06T00:07:20;4.43;;;2.70;;
773;SDS011;370;48.810;9.150;2023-04-06T00:09:46;3.70;;;1.70;;
773;SDS011;370;48.810;9.150;2023-04-06T00:12:13;3.40;;;1.27;;
773;SDS011;370;48.810;9.150;2023-04-06T00:14:40;5.47;;;1.55;;
773;SDS011;370;48.810;9.150;2023-04-06T00:17:08;3.45;;;1.42;;
773;SDS011;370;48.810;9.150;2023-04-06T00:19:34;28.88;;;2.75;;
773;SDS011;370;48.810;9.150;2023-04-06T00:22:02;3.45;;;2.50;;
773;SDS011;370;48.810;9.150;2023-04-06T00:24:28;3.33;;;1.92;;
773;SDS011;370;48.810;9.150;2023-04-06T00:26:55;1.95;;;1.85;;
773;SDS011;370;48.810;9.150;2023-04-06T00:29:22;8.30;;;2.53;;
773;SDS011;370;48.810;9.150;2023-04-06T00:31:49;5.88;;;1.50;;
773;SDS011;370;48.810;9.150;2023-04-06T00:34:17;1.20;;;1.13;;
773;SDS011;370;48.810;9.150;2023-04-06T00:36:43;1.30;;;1.23;;
773;SDS011;370;48.810;9.150;2023-04-06T00:39:10;4.55;;;1.98;;
773;SDS011;370;48.810;9.150;2023-04-06T00:41:37;2.03;;;1.42;;
773;SDS011;370;48.810;9.150;2023-04-06T00:44:06;2.72;;;1.50;;
773;SDS011;370;48.810;9.150;2023-04-06T00:46:33;1.50;;;1.40;;
773;SDS011;370;48.810;9.150;2023-04-06T00:49:00;1.75;;;1.20;;
773;SDS011;370;48.810;9.150;2023-04-06T00:51:28;4.10;;;1.05;;
773;SDS011;370;48.810;9.150;2023-04-06T00:53:55;3.55;;;1.58;;
773;SDS011;370;48.810;9.150;2023-04-06T00:56:22;2.80;;;1.85;;
773;SDS011;370;48.810;9.150;2023-04-06T00:58:51;2.22;;;1.48;;
773;SDS011;370;48.810;9.150;2023-04-06T01:01:18;5.47;;;1.63;;
773;SDS011;370;48.810;9.150;2023-04-06T01:03:45;8.02;;;1.63;;
773;SDS011;370;48.810;9.150;2023-04-06T01:06:13;2.45;;;1.48;;
773;SDS011;370;48.810;9.150;2023-04-06T01:08:42;2.58;;;1.35;;
773;SDS011;370;48.810;9.150;2023-04-06T01:11:08;2.83;;;1.55;;
773;SDS011;370;48.810;9.150;2023-04-06T01:13:35;5.70;;;1.55;;
773;SDS011;370;48.810;9.150;2023-04-06T01:16:02;7.90;;;2.20;;
773;SDS011;370;48.810;9.150;2023-04-06T01:18:30;5.57;;;1.30;;
773;SDS011;370;48.810;9.150;2023-04-06T01:20:57;5.45;;;1.05;;
773;SDS011;370;48.810;9.150;2023-04-06T01:23:25;2.58;;;1.60;;
773;SDS011;370;48.810;9.150;2023-04-06T01:25:52;3.38;;;1.38;;
773;SDS011;370;48.810;9.150;2023-04-06T01:28:19;2.45;;;1.70;;
773;SDS011;370;48.810;9.150;2023-04-06T01:30:46;2.67;;;1.83;;
773;SDS011;370;48.810;9.150;2023-04-06T01:33:12;2.72;;;1.98;;
773;SDS011;370;48.810;9.150;2023-04-06T01:35:39;4.80;;;1.50;;
773;SDS011;370;48.810;9.150;2023-04-06T01:38:06;2.60;;;2.15;;
773;SDS011;370;48.810;9.150;2023-04-06T01:40:34;1.33;;;1.23;;
773;SDS011;370;48.810;9.150;2023-04-06T01:43:01;1.50;;;1.42;;
773;SDS011;370;48.810;9.150;2023-04-06T01:45:27;3.38;;;1.90;;
773;SDS011;370;48.810;9.150;2023-04-06T01:47:54;1.17;;;1.15;;
773;SDS011;370;48.810;9.150;2023-04-06T01:50:21;2.60;;;1.73;;
773;SDS011;370;48.810;9.150;2023-04-06T01:52:48;2.20;;;1.17;;
773;SDS011;370;48.810;9.150;2023-04-06T01:55:15;4.30;;;1.42;;
773;SDS011;370;48.810;9.150;2023-04-06T01:57:44;2.50;;;1.00;;
773;SDS011;370;48.810;9.150;2023-04-06T02:00:11;3.35;;;1.70;;
773;SDS011;370;48.810;9.150;2023-04-06T02:02:39;2.90;;;1.35;;
773;SDS011;370;48.810;9.150;2023-04-06T02:05:06;1.35;;;1.27;;
773;SDS011;370;48.810;9.150;2023-04-06T02:07:33;2.67;;;1.02;;
773;SDS011;370;48.810;9.150;2023-04-06T02:10:00;3.85;;;1.67;;
773;SDS011;370;48.810;9.150;2023-04-06T02:12:26;1.50;;;1.40;;
773;SDS011;370;48.810;9.150;2023-04-06T02:14:54;1.80;;;1.10;;
773;SDS011;370;48.810;9.150;2023-04-06T02:17:21;2.15;;;1.15;;
773;SDS011;370;48.810;9.150;2023-04-06T02:19:48;2.17;;;1.77;;
773;SDS011;370;48.810;9.150;2023-04-06T02:22:15;1.70;;;1.60;;
773;SDS011;370;48.810;9.150;2023-04-06T02:24:41;0.98;;;0.88;;
773;SDS011;370;48.810;9.150;2023-04-06T02:27:08;7.15;;;2.58;;
773;SDS011;370;48.810;9.150;2023-04-06T02:29:35;1.20;;;1.20;;
773;SDS011;370;48.810;9.150;2023-04-06T02:32:03;1.35;;;0.70;;
773;SDS011;370;48.810;9.150;2023-04-06T02:34:30;2.45;;;2.28;;
773;SDS011;370;48.810;9.150;2023-04-06T02:36:57;1.08;;;0.80;;
773;SDS011;370;48.810;9.150;2023-04-06T02:39:23;1.85;;;1.30;;
773;SDS011;370;48.810;9.150;2023-04-06T02:41:50;6.05;;;1.63;;
773;SDS011;370;48.810;9.150;2023-04-06T02:44:17;5.95;;;2.20;;
773;SDS011;370;48.810;9.150;2023-04-06T02:46:44;2.85;;;1.40;;
773;SDS011;370;48.810;9.150;2023-04-06T02:49:12;2.47;;;1.23;;
773;SDS011;370;48.810;9.150;2023-04-06T02:51:39;1.00;;;0.90;;
773;SDS011;370;48.810;9.150;2023-04-06T02:54:06;1.73;;;1.20;;
773;SDS011;370;48.810;9.150;2023-04-06T02:56:32;3.08;;;1.63;;
773;SDS011;370;48.810;9.150;2023-04-06T02:58:59;3.10;;;1.45;;
773;SDS011;370;48.810;9.150;2023-04-06T03:01:26;0.82;;;0.73;;
773;SDS011;370;48.810;9.150;2023-04-06T03:03:52;2.78;;;1.63;;
773;SDS011;370;48.810;9.150;2023-04-06T03:06:21;1.33;;;0.90;;
773;SDS011;370;48.810;9.150;2023-04-06T03:08:47;12.57;;;2.05;;
773;SDS011;370;48.810;9.150;2023-04-06T03:11:14;1.67;;;1.58;;
773;SDS011;370;48.810;9.150;2023-04-06T03:13:40;1.25;;;1.10;;
773;SDS011;370;48.810;9.150;2023-04-06T03:16:07;2.72;;;1.42;;
773;SDS011;370;48.810;9.150;2023-04-06T03:18:34;5.10;;;0.93;;
773;SDS011;370;48.810;9.150;2023-04-06T03:21:01;3.28;;;1.23;;
773;SDS011;370;48.810;9.150;2023-04-06T03:23:29;3.13;;;1.60;;
773;SDS011;370;48.810;9.150;2023-04-06T03:25:55;4.00;;;2.22;;
773;SDS011;370;48.810;9.150;2023-04-06T03:28:22;2.28;;;2.13;;
773;SDS011;370;48.810;9.150;2023-04-06T03:30:49;10.38;;;2.08;;
773;SDS011;370;48.810;9.150;2023-04-06T03:33:16;5.13;;;1.58;;
773;SDS011;370;48.810;9.150;2023-04-06T03:35:42;7.97;;;1.70;;
773;SDS011;370;48.810;9.150;2023-04-06T03:38:09;12.73;;;1.80;;
773;SDS011;370;48.810;9.150;2023-04-06T03:40:37;1.60;;;0.90;;
773;SDS011;370;48.810;9.150;2023-04-06T03:43:04;5.80;;;2.40;;
773;SDS011;370;48.810;9.150;2023-04-06T03:45:30;5.88;;;2.20;;
773;SDS011;370;48.810;9.150;2023-04-06T03:47:57;5.28;;;1.05;;
773;SDS011;370;48.810;9.150;2023-04-06T03:50:24;8.13;;;1.70;;
773;SDS011;370;48.810;9.150;2023-04-06T03:52:51;4.55;;;1.20;;
773;SDS011;370;48.810;9.150;2023-04-06T03:55:17;1.55;;;1.33;;
773;SDS011;370;48.810;9.150;2023-04-06T03:57:45;3.15;;;1.45;;
773;SDS011;370;48.810;9.150;2023-04-06T04:00:12;1.80;;;1.63;;
773;SDS011;370;48.810;9.150;2023-04-06T04:06:01;3.83;;;1.67;;
773;SDS011;370;48.810;9.150;2023-04-06T04:08:28;0.85;;;0.80;;
773;SDS011;370;48.810;9.150;2023-04-06T04:10:55;3.13;;;1.58;;
773;SDS011;370;48.810;9.150;2023-04-06T04:13:23;0.98;;;0.88;;
773;SDS011;370;48.810;9.150;2023-04-06T04:15:50;0.70;;;0.70;;
773;SDS011;370;48.810;9.150;2023-04-06T04:18:16;2.42;;;1.67;;
773;SDS011;370;48.810;9.150;2023-04-06T04:20:43;0.60;;;0.55;;
773;SDS011;370;48.810;9.150;2023-04-06T04:23:10;2.70;;;1.30;;
773;SDS011;370;48.810;9.150;2023-04-06T04:25:36;1.20;;;1.10;;
773;SDS011;370;48.810;9.150;2023-04-06T04:28:03;3.75;;;1.48;;
773;SDS011;370;48.810;9.150;2023-04-06T04:30:31;0.75;;;0.65;;
773;SDS011;370;48.810;9.150;2023-04-06T04:32:58;0.88;;;0.80;;
773;SDS011;370;48.810;9.150;2023-04-06T04:35:26;2.35;;;0.95;;
773;SDS011;370;48.810;9.150;2023-04-06T04:37:53;3.25;;;1.95;;
773;SDS011;370;48.810;9.150;2023-04-06T04:40:19;7.15;;;1.58;;
773;SDS011;370;48.810;9.150;2023-04-06T04:42:46;1.52;;;1.48;;
773;SDS011;370;48.810;9.150;2023-04-06T04:45:13;4.30;;;2.35;;
773;SDS011;370;48.810;9.150;2023-04-06T04:47:41;8.88;;;1.67;;
773;SDS011;370;48.810;9.150;2023-04-06T04:50:08;1.73;;;1.45;;
773;SDS011;370;48.810;9.150;2023-04-06T04:52:36;1.17;;;1.13;;
773;SDS011;370;48.810;9.150;2023-04-06T04:55:03;3.70;;;1.48;;
773;SDS011;370;48.810;9.150;2023-04-06T04:57:31;3.22;;;1.73;;
773;SDS011;370;48.810;9.150;2023-04-06T04:59:57;1.60;;;1.08;;
773;SDS011;370;48.810;9.150;2023-04-06T05:02:24;2.70;;;1.30;;
773;SDS011;370;48.810;9.150;2023-04-06T05:04:52;1.35;;;1.30;;
773;SDS011;370;48.810;9.150;2023-04-06T05:07:19;2.80;;;1.25;;
773;SDS011;370;48.810;9.150;2023-04-06T05:09:46;2.00;;;1.15;;
773;SDS011;370;48.810;9.150;2023-04-06T05:12:12;3.03;;;2.17;;
773;SDS011;370;48.810;9.150;2023-04-06T05:14:39;3.45;;;1.50;;
773;SDS011;370;48.810;9.150;2023-04-06T05:17:06;2.28;;;1.20;;
773;SDS011;370;48.810;9.150;2023-04-06T05:19:33;1.73;;;1.33;;
773;SDS011;370;48.810;9.150;2023-04-06T05:22:01;1.25;;;1.15;;
773;SDS011;370;48.810;9.150;2023-04-06T05:24:28;10.00;;;2.80;;
773;SDS011;370;48.810;9.150;2023-04-06T05:26:55;3.95;;;2.58;;
773;SDS011;370;48.810;9.150;2023-04-06T05:29:22;3.63;;;1.20;;
773;SDS011;370;48.810;9.150;2023-04-06T05:31:48;1.70;;;1.25;;
773;SDS011;370;48.810;9.150;2023-04-06T05:34:17;4.10;;;1.98;;
773;SDS011;370;48.810;9.150;2023-04-06T05:36:43;39.35;;;3.03;;
773;SDS011;370;48.810;9.150;2023-04-06T05:39:12;3.30;;;3.15;;
773;SDS011;370;48.810;9.150;2023-04-06T05:41:39;1.73;;;0.90;;
773;SDS011;370;48.810;9.150;2023-04-06T05:44:06;6.80;;;1.60;;
773;SDS011;370;48.810;9.150;2023-04-06T05:46:32;2.65;;;1.67;;
773;SDS011;370;48.810;9.150;2023-04-06T05:48:59;2.65;;;1.80;;
773;SDS011;370;48.810;9.150;2023-04-06T05:51:26;2.70;;;1.77;;
773;SDS011;370;48.810;9.150;2023-04-06T05:53:53;2.20;;;2.03;;
773;SDS011;370;48.810;9.150;2023-04-06T05:56:21;2.47;;;1.75;;
773;SDS011;370;48.810;9.150;2023-04-06T05:58:51;6.10;;;2.08;;
773;SDS011;370;48.810;9.150;2023-04-06T06:01:18;8.48;;;3.00;;
773;SDS011;370;48.810;9.150;2023-04-06T06:03:45;4.40;;;1.70;;
773;SDS011;370;48.810;9.150;2023-04-06T06:06:11;11.05;;;3.00;;
773;SDS011;370;48.810;9.150;2023-04-06T06:08:38;8.90;;;4.55;;
773;SDS011;370;48.810;9.150;2023-04-06T06:11:05;4.88;;;3.10;;
773;SDS011;370;48.810;9.150;2023-04-06T06:13:33;8.65;;;4.00;;
773;SDS011;370;48.810;9.150;2023-04-06T06:16:00;15.43;;;4.18;;
773;SDS011;370;48.810;9.150;2023-04-06T06:18:30;10.88;;;3.67;;
773;SDS011;370;48.810;9.150;2023-04-06T06:20:56;10.20;;;3.85;;
773;SDS011;370;48.810;9.150;2023-04-06T06:23:23;11.98;;;3.35;;
773;SDS011;370;48.810;9.150;2023-04-06T06:25:50;10.98;;;4.60;;
773;SDS011;370;48.810;9.150;2023-04-06T06:28:17;7.72;;;3.28;;
773;SDS011;370;48.810;9.150;2023-04-06T06:30:45;10.77;;;4.93;;
773;SDS011;370;48.810;9.150;2023-04-06T06:33:11;7.85;;;4.32;;
773;SDS011;370;48.810;9.150;2023-04-06T06:35:38;8.82;;;4.82;;
773;SDS011;370;48.810;9.150;2023-04-06T06:38:05;20.33;;;6.55;;
773;SDS011;370;48.810;9.150;2023-04-06T06:40:32;7.85;;;4.63;;
773;SDS011;370;48.810;9.150;2023-04-06T06:42:59;13.43;;;5.68;;
773;SDS011;370;48.810;9.150;2023-04-06T06:45:26;7.95;;;4.25;;
773;SDS011;370;48.810;9.150;2023-04-06T06:47:55;13.05;;;5.93;;
773;SDS011;370;48.810;9.150;2023-04-06T06:50:22;8.48;;;4.85;;
773;SDS011;370;48.810;9.150;2023-04-06T06:52:52;9.57;;;4.90;;
773;SDS011;370;48.810;9.150;2023-04-06T06:55:19;25.90;;;5.35;;
773;SDS011;370;48.810;9.150;2023-04-06T06:57:46;11.40;;;5.70;;
773;SDS011;370;48.810;9.150;2023-04-06T07:00:13;16.67;;;6.68;;
773;SDS011;370;48.810;9.150;2023-04-06T07:02:40;14.15;;;5.60;;
773;SDS011;370;48.810;9.150;2023-04-06T07:05:09;8.20;;;4.82;;
773;SDS011;370;48.810;9.150;2023-04-06T07:07:35;17.48;;;5.75;;
773;SDS011;370;48.810;9.150;2023-04-06T07:10:02;13.95;;;5.13;;
773;SDS011;370;48.810;9.150;2023-04-06T07:12:29;17.98;;;7.70;;
773;SDS011;370;48.810;9.150;2023-04-06T07:14:56;12.52;;;6.65;;
773;SDS011;370;48.810;9.150;2023-04-06T07:17:23;11.32;;;4.75;;
773;SDS011;370;48.810;9.150;2023-04-06T07:19:49;11.37;;;5.57;;
773;SDS011;370;48.810;9.150;2023-04-06T07:22:18;18.57;;;6.33;;
773;SDS011;370;48.810;9.150;2023-04-06T07:24:44;12.23;;;6.70;;
773;SDS011;370;48.810;9.150;2023-04-06T07:27:11;12.37;;;5.23;;
773;SDS011;370;48.810;9.150;2023-04-06T07:29:38;9.70;;;5.27;;
773;SDS011;370;48.810;9.150;2023-04-06T07:32:04;12.20;;;6.37;;
773;SDS011;370;48.810;9.150;2023-04-06T07:34:31;10.57;;;6.07;;
773;SDS011;370;48.810;9.150;2023-04-06T07:36:58;12.57;;;6.03;;
773;SDS011;370;48.810;9.150;2023-04-06T07:39:27;15.50;;;6.40;;
773;SDS011;370;48.810;9.150;2023-04-06T07:41:54;10.93;;;6.33;;
773;SDS011;370;48.810;9.150;2023-04-06T07:44:21;15.37;;;7.20;;
773;SDS011;370;48.810;9.150;2023-04-06T07:46:48;14.03;;;7.20;;
773;SDS011;370;48.810;9.150;2023-04-06T07:49:15;23.70;;;7.30;;
773;SDS011;370;48.810;9.150;2023-04-06T07:51:41;9.07;;;5.40;;
773;SDS011;370;48.810;9.150;2023-04-06T07:54:08;14.00;;;6.57;;
773;SDS011;370;48.810;9.150;2023-04-06T07:56:36;11.60;;;6.60;;
773;SDS011;370;48.810;9.150;2023-04-06T07:59:03;20.23;;;6.67;;
773;SDS011;370;48.810;9.150;2023-04-06T08:01:30;17.17;;;7.50;;
773;SDS011;370;48.810;9.150;2023-04-06T08:03:56;14.00;;;7.10;;
773;SDS011;370;48.810;9.150;2023-04-06T08:06:23;11.67;;;6.47;;
773;SDS011;370;48.810;9.150;2023-04-06T08:08:51;19.37;;;7.37;;
773;SDS011;370;48.810;9.150;2023-04-06T08:11:17;9.47;;;6.10;;
773;SDS011;370;48.810;9.150;2023-04-06T08:13:46;15.83;;;6.90;;
773;SDS011;370;48.810;9.150;2023-04-06T08:16:13;14.00;;;7.73;;
773;SDS011;370;48.810;9.150;2023-04-06T08:18:40;15.27;;;7.17;;
773;SDS011;370;48.810;9.150;2023-04-06T08:21:06;11.80;;;6.47;;
773;SDS011;370;48.810;9.150;2023-04-06T08:23:33;13.60;;;6.70;;
773;SDS011;370;48.810;9.150;2023-04-06T08:26:00;12.43;;;5.93;;
773;SDS011;370;48.810;9.150;2023-04-06T08:28:26;19.40;;;7.87;;
773;SDS011;370;48.810;9.150;2023-04-06T08:30:55;13.17;;;7.10;;
773;SDS011;370;48.810;9.150;2023-04-06T08:33:21;13.90;;;7.93;;
773;SDS011;370;48.810;9.150;2023-04-06T08:35:48;15.37;;;7.20;;
773;SDS011;370;48.810;9.150;2023-04-06T08:38:15;16.00;;;7.63;;
773;SDS011;370;48.810;9.150;2023-04-06T08:40:42;13.60;;;7.17;;
773;SDS011;370;48.810;9.150;2023-04-06T08:43:11;13.00;;;6.70;;
773;SDS011;370;48.810;9.150;2023-04-06T08:45:40;12.77;;;8.10;;
773;SDS011;370;48.810;9.150;2023-04-06T08:48:09;15.70;;;8.60;;
773;SDS011;370;48.810;9.150;2023-04-06T08:50:38;12.20;;;7.00;;
773;SDS011;370;48.810;9.150;2023-04-06T08:53:05;12.00;;;8.17;;
773;SDS011;370;48.810;9.150;2023-04-06T08:55:33;10.97;;;7.20;;
773;SDS011;370;48.810;9.150;2023-04-06T08:58:00;11.80;;;7.37;;
773;SDS011;370;48.810;9.150;2023-04-06T09:00:28;13.83;;;7.40;;
773;SDS011;370;48.810;9.150;2023-04-06T09:02:55;13.83;;;8.13;;
773;SDS011;370;48.810;9.150;2023-04-06T09:05:24;14.67;;;8.47;;
773;SDS011;370;48.810;9.150;2023-04-06T09:07:52;22.47;;;7.60;;
773;SDS011;370;48.810;9.150;2023-04-06T09:10:19;12.30;;;7.50;;
773;SDS011;370;48.810;9.150;2023-04-06T09:12:48;11.90;;;7.90;;
773;SDS011;370;48.810;9.150;2023-04-06T09:15:18;11.40;;;7.30;;
773;SDS011;370;48.810;9.150;2023-04-06T09:17:46;11.17;;;7.10;;
773;SDS011;370;48.810;9.150;2023-04-06T09:20:12;10.50;;;8.23;;
773;SDS011;370;48.810;9.150;2023-04-06T09:22:41;15.33;;;7.47;;
773;SDS011;370;48.810;9.150;2023-04-06T09:25:08;12.70;;;7.97;;
773;SDS011;370;48.810;9.150;2023-04-06T09:27:44;14.53;;;7.77;;
773;SDS011;370;48.810;9.150;2023-04-06T09:30:12;13.60;;;8.20;;
773;SDS011;370;48.810;9.150;2023-04-06T09:32:48;15.40;;;8.10;;
773;SDS011;370;48.810;9.150;2023-04-06T09:35:16;14.60;;;8.70;;
773;SDS011;370;48.810;9.150;2023-04-06T09:37:47;12.23;;;8.70;;
773;SDS011;370;48.810;9.150;2023-04-06T09:40:15;11.43;;;8.30;;
773;SDS011;370;48.810;9.150;2023-04-06T09:42:45;11.53;;;8.53;;
773;SDS011;370;48.810;9.150;2023-04-06T09:45:12;12.97;;;8.40;;
773;SDS011;370;48.810;9.150;2023-04-06T09:47:42;15.47;;;8.33;;
773;SDS011;370;48.810;9.150;2023-04-06T09:50:10;12.53;;;7.70;;
773;SDS011;370;48.810;9.150;2023-04-06T09:52:41;12.53;;;7.33;;
773;SDS011;370;48.810;9.150;2023-04-06T09:55:16;12.03;;;7.47;;
773;SDS011;370;48.810;9.150;2023-04-06T09:57:48;10.43;;;7.63;;
773;SDS011;370;48.810;9.150;2023-04-06T10:00:20;15.90;;;7.53;;
773;SDS011;370;48.810;9.150;2023-04-06T10:02:49;11.30;;;7.23;;
773;SDS011;370;48.810;9.150;2023-04-06T10:05:22;12.97;;;7.77;;
773;SDS011;370;48.810;9.150;2023-04-06T10:07:59;13.57;;;7.67;;
773;SDS011;370;48.810;9.150;2023-04-06T10:10:32;10.40;;;7.20;;
773;SDS011;370;48.810;9.150;2023-04-06T10:12:59;15.70;;;7.53;;
773;SDS011;370;48.810;9.150;2023-04-06T10:15:27;12.90;;;7.80;;
773;SDS011;370;48.810;9.150;2023-04-06T10:17:54;14.97;;;7.90;;
773;SDS011;370;48.810;9.150;2023-04-06T10:20:22;18.57;;;7.83;;
773;SDS011;370;48.810;9.150;2023-04-06T10:22:54;10.40;;;6.57;;
773;SDS011;370;48.810;9.150;2023-04-06T10:25:28;13.20;;;7.17;;
773;SDS011;370;48.810;9.150;2023-04-06T10:28:00;11.07;;;7.07;;
773;SDS011;370;48.810;9.150;2023-04-06T10:30:28;11.00;;;6.07;;
773;SDS011;370;48.810;9.150;2023-04-06T10:32:55;10.27;;;6.43;;
773;SDS011;370;48.810;9.150;2023-04-06T10:35:21;10.87;;;7.70;;
773;SDS011;370;48.810;9.150;2023-04-06T10:37:52;8.90;;;6.63;;
773;SDS011;370;48.810;9.150;2023-04-06T10:40:26;11.83;;;6.20;;
773;SDS011;370;48.810;9.150;2023-04-06T10:42:53;8.57;;;6.37;;
773;SDS011;370;48.810;9.150;2023-04-06T10:45:24;12.30;;;7.10;;
773;SDS011;370;48.810;9.150;2023-04-06T10:47:52;12.47;;;5.73;;
773;SDS011;370;48.810;9.150;2023-04-06T10:50:20;10.90;;;7.37;;
773;SDS011;370;48.810;9.150;2023-04-06T10:56:09;8.50;;;6.80;;
773;SDS011;370;48.810;9.150;2023-04-06T10:58:36;13.80;;;6.00;;
773;SDS011;370;48.810;9.150;2023-04-06T11:01:05;10.30;;;6.20;;
773;SDS011;370;48.810;9.150;2023-04-06T11:03:36;12.37;;;7.00;;
773;SDS011;370;48.810;9.150;2023-04-06T11:06:09;8.97;;;5.47;;
773;SDS011;370;48.810;9.150;2023-04-06T11:08:36;9.07;;;6.40;;
773;SDS011;370;48.810;9.150;2023-04-06T11:11:05;13.43;;;8.53;;
773;SDS011;370;48.810;9.150;2023-04-06T11:13:37;11.77;;;6.77;;
773;SDS011;370;48.810;9.150;2023-04-06T11:16:06;13.47;;;6.37;;
773;SDS011;370;48.810;9.150;2023-04-06T11:18:33;7.80;;;6.00;;
773;SDS011;370;48.810;9.150;2023-04-06T11:21:00;9.70;;;6.57;;
773;SDS011;370;48.810;9.150;2023-04-06T11:23:26;9.77;;;6.10;;
773;SDS011;370;48.810;9.150;2023-04-06T11:25:53;11.70;;;6.27;;
773;SDS011;370;48.810;9.150;2023-04-06T11:28:20;11.77;;;6.60;;
773;SDS011;370;48.810;9.150;2023-04-06T11:30:47;9.57;;;6.20;;
773;SDS011;370;48.810;9.150;2023-04-06T11:33:21;9.07;;;6.20;;
773;SDS011;370;48.810;9.150;2023-04-06T11:35:48;8.10;;;5.77;;
773;SDS011;370;48.810;9.150;2023-04-06T11:38:14;9.50;;;6.30;;
773;SDS011;370;48.810;9.150;2023-04-06T11:40:43;13.03;;;6.53;;
773;SDS011;370;48.810;9.150;2023-04-06T11:43:10;12.33;;;6.20;;
773;SDS011;370;48.810;9.150;2023-04-06T11:45:41;14.87;;;6.70;;
773;SDS011;370;48.810;9.150;2023-04-06T11:48:17;9.10;;;6.50;;
773;SDS011;370;48.810;9.150;2023-04-06T11:50:47;9.20;;;5.33;;
773;SDS011;370;48.810;9.150;2023-04-06T11:53:14;7.30;;;5.67;;
773;SDS011;370;48.810;9.150;2023-04-06T11:55:40;7.60;;;5.60;;
773;SDS011;370;48.810;9.150;2023-04-06T11:58:10;11.03;;;6.37;;
773;SDS011;370;48.810;9.150;2023-04-06T12:00:36;8.93;;;6.23;;
773;SDS011;370;48.810;9.150;2023-04-06T12:03:03;7.77;;;6.00;;
773;SDS011;370;48.810;9.150;2023-04-06T12:05:32;7.20;;;6.03;;
773;SDS011;370;48.810;9.150;2023-04-06T12:08:00;10.47;;;6.27;;
773;SDS011;370;48.810;9.150;2023-04-06T12:10:27;14.73;;;6.27;;
773;SDS011;370;48.810;9.150;2023-04-06T12:12:53;8.97;;;5.80;;
773;SDS011;370;48.810;9.150;2023-04-06T12:15:20;8.63;;;5.93;;
773;SDS011;370;48.810;9.150;2023-04-06T12:17:47;8.83;;;6.33;;
773;SDS011;370;48.810;9.150;2023-04-06T12:20:14;8.97;;;6.30;;
773;SDS011;370;48.810;9.150;2023-04-06T12:22:41;7.47;;;5.37;;
773;SDS011;370;48.810;9.150;2023-04-06T12:25:09;8.40;;;5.47;;
773;SDS011;370;48.810;9.150;2023-04-06T12:27:37;9.00;;;6.03;;
773;SDS011;370;48.810;9.150;2023-04-06T12:30:04;10.90;;;5.73;;
773;SDS011;370;48.810;9.150;2023-04-06T12:32:31;10.70;;;5.87;;
773;SDS011;370;48.810;9.150;2023-04-06T12:34:58;8.80;;;6.37;;
773;SDS011;370;48.810;9.150;2023-04-06T12:37:25;11.43;;;5.80;;
773;SDS011;370;48.810;9.150;2023-04-06T12:39:53;11.80;;;6.30;;
773;SDS011;370;48.810;9.150;2023-04-06T12:42:21;8.87;;;6.03;;
773;SDS011;370;48.810;9.150;2023-04-06T12:44:47;9.30;;;6.47;;
773;SDS011;370;48.810;9.150;2023-04-06T12:47:14;11.17;;;6.40;;
773;SDS011;370;48.810;9.150;2023-04-06T12:49:41;8.17;;;5.77;;
773;SDS011;370;48.810;9.150;2023-04-06T12:52:08;9.10;;;5.50;;
773;SDS011;370;48.810;9.150;2023-04-06T12:54:36;10.30;;;5.40;;
773;SDS011;370;48.810;9.150;2023-04-06T12:57:03;8.70;;;6.27;;
773;SDS011;370;48.810;9.150;2023-04-06T12:59:31;10.33;;;6.00;;
773;SDS011;370;48.810;9.150;2023-04-06T13:02:00;8.40;;;5.93;;
773;SDS011;370;48.810;9.150;2023-04-06T13:04:27;9.87;;;6.10;;
773;SDS011;370;48.810;9.150;2023-04-06T13:06:53;8.20;;;5.20;;
773;SDS011;370;48.810;9.150;2023-04-06T13:09:20;9.37;;;5.93;;
773;SDS011;370;48.810;9.150;2023-04-06T13:11:47;7.50;;;5.87;;
773;SDS011;370;48.810;9.150;2023-04-06T13:14:14;14.40;;;6.27;;
773;SDS011;370;48.810;9.150;2023-04-06T13:16:42;10.23;;;6.70;;
773;SDS011;370;48.810;9.150;2023-04-06T13:19:09;10.43;;;5.30;;
773;SDS011;370;48.810;9.150;2023-04-06T13:21:36;9.27;;;6.00;;
773;SDS011;370;48.810;9.150;2023-04-06T13:24:03;9.80;;;5.23;;
773;SDS011;370;48.810;9.150;2023-04-06T13:26:31;8.10;;;5.00;;
773;SDS011;370;48.810;9.150;2023-04-06T13:28:58;10.47;;;5.53;;
773;SDS011;370;48.810;9.150;2023-04-06T13:31:26;9.20;;;5.40;;
773;SDS011;370;48.810;9.150;2023-04-06T13:33:54;12.40;;;5.47;;
773;SDS011;370;48.810;9.150;2023-04-06T13:36:21;10.93;;;5.70;;
773;SDS011;370;48.810;9.150;2023-04-06T13:38:48;7.43;;;4.70;;
773;SDS011;370;48.810;9.150;2023-04-06T13:41:19;8.47;;;5.10;;
773;SDS011;370;48.810;9.150;2023-04-06T13:43:46;5.23;;;3.77;;
773;SDS011;370;48.810;9.150;2023-04-06T13:46:13;9.10;;;4.50;;
773;SDS011;370;48.810;9.150;2023-04-06T13:48:40;8.60;;;5.00;;
773;SDS011;370;48.810;9.150;2023-04-06T13:51:09;7.40;;;4.70;;
773;SDS011;370;48.810;9.150;2023-04-06T13:53:36;8.40;;;5.63;;
773;SDS011;370;48.810;9.150;2023-04-06T13:56:03;5.67;;;4.20;;
773;SDS011;370;48.810;9.150;2023-04-06T13:58:30;9.20;;;4.67;;
773;SDS011;370;48.810;9.150;2023-04-06T14:01:01;8.20;;;4.80;;
773;SDS011;370;48.810;9.150;2023-04-06T14:03:29;8.50;;;4.40;;
773;SDS011;370;48.810;9.150;2023-04-06T14:05:56;9.70;;;4.47;;
773;SDS011;370;48.810;9.150;2023-04-06T14:08:24;7.17;;;4.20;;
773;SDS011;370;48.810;9.150;2023-04-06T14:10:51;5.73;;;3.97;;
773;SDS011;370;48.810;9.150;2023-04-06T14:13:19;9.03;;;4.13;;
773;SDS011;370;48.810;9.150;2023-04-06T14:15:45;9.10;;;4.73;;
773;SDS011;370;48.810;9.150;2023-04-06T14:18:12;7.67;;;4.37;;
773;SDS011;370;48.810;9.150;2023-04-06T14:20:39;8.27;;;4.13;;
773;SDS011;370;48.810;9.150;2023-04-06T14:23:06;12.13;;;4.30;;
773;SDS011;370;48.810;9.150;2023-04-06T14:25:34;8.47;;;4.20;;
773;SDS011;370;48.810;9.150;2023-04-06T14:28:01;6.77;;;4.80;;
773;SDS011;370;48.810;9.150;2023-04-06T14:30:29;5.80;;;3.73;;
773;SDS011;370;48.810;9.150;2023-04-06T14:32:56;8.90;;;4.10;;
773;SDS011;370;48.810;9.150;2023-04-06T14:35:23;5.80;;;3.53;;
773;SDS011;370;48.810;9.150;2023-04-06T14:37:52;7.10;;;3.53;;
773;SDS011;370;48.810;9.150;2023-04-06T14:40:20;9.10;;;3.90;;
773;SDS011;370;48.810;9.150;2023-04-06T14:42:48;11.57;;;3.70;;
773;SDS011;370;48.810;9.150;2023-04-06T14:45:16;11.20;;;4.57;;
773;SDS011;370;48.810;9.150;2023-04-06T14:47:44;9.27;;;3.80;;
773;SDS011;370;48.810;9.150;2023-04-06T14:50:11;6.63;;;3.40;;
773;SDS011;370;48.810;9.150;2023-04-06T14:52:38;7.23;;;3.90;;
773;SDS011;370;48.810;9.150;2023-04-06T14:55:05;8.13;;;3.73;;
773;SDS011;370;48.810;9.150;2023-04-06T14:57:32;9.63;;;3.87;;
773;SDS011;370;48.810;9.150;2023-04-06T15:00:00;11.23;;;3.60;;
773;SDS011;370;48.810;9.150;2023-04-06T15:02:28;7.07;;;3.60;;
773;SDS011;370;48.810;9.150;2023-04-06T15:04:56;6.70;;;3.70;;
773;SDS011;370;48.810;9.150;2023-04-06T15:07:23;8.33;;;3.90;;
773;SDS011;370;48.810;9.150;2023-04-06T15:09:50;7.53;;;3.90;;
773;SDS011;370;48.810;9.150;2023-04-06T15:12:17;7.77;;;4.13;;
773;SDS011;370;48.810;9.150;2023-04-06T15:14:44;9.43;;;3.47;;
773;SDS011;370;48.810;9.150;2023-04-06T15:17:12;10.20;;;4.07;;
773;SDS011;370;48.810;9.150;2023-04-06T15:19:38;6.67;;;3.40;;
773;SDS011;370;48.810;9.150;2023-04-06T15:22:05;5.07;;;3.13;;
773;SDS011;370;48.810;9.150;2023-04-06T15:24:32;6.33;;;3.33;;
773;SDS011;370;48.810;9.150;2023-04-06T15:26:59;9.00;;;3.70;;
773;SDS011;370;48.810;9.150;2023-04-06T15:29:26;8.60;;;3.60;;
773;SDS011;370;48.810;9.150;2023-04-06T15:31:53;7.80;;;3.73;;
773;SDS011;370;48.810;9.150;2023-04-06T15:34:21;6.20;;;3.67;;
773;SDS011;370;48.810;9.150;2023-04-06T15:36:48;10.30;;;4.20;;
773;SDS011;370;48.810;9.150;2023-04-06T15:39:16;11.77;;;3.97;;
773;SDS011;370;48.810;9.150;2023-04-06T15:41:43;5.77;;;2.93;;
773;SDS011;370;48.810;9.150;2023-04-06T15:44:09;7.93;;;3.50;;
773;SDS011;370;48.810;9.150;2023-04-06T15:46:36;6.70;;;3.27;;